sensor_id;sensor_type;location;lat;lon;timestamp;temperature;humidity
9425;DHT22;17139;52.140;11.636;2024-03-22T00:03:56;6.80;57.30
9425;DHT22;17139;52.140;11.636;2024-03-22T00:06:22;6.80;57.30
9425;DHT22;17139;52.140;11.636;2024-03-22T00:08:48;6.80;57.40
9425;DHT22;17139;52.140;11.636;2024-03-22T00:11:14;7.70;58.30
9425;DHT22;17139;52.140;11.636;2024-03-22T00:13:41;7.50;56.80
9425;DHT22;17139;52.140;11.636;2024-03-22T00:16:07;7.40;57.30
9425;DHT22;17139;52.140;11.636;2024-03-22T00:18:33;7.30;57.10
9425;DHT22;17139;52.140;11.636;2024-03-22T00:20:58;7.20;57.20
9425;DHT22;17139;52.140;11.636;2024-03-22T00:23:24;7.10;57.30
9425;DHT22;17139;52.140;11.636;2024-03-22T00:25:50;7.10;57.30
9425;DHT22;17139;52.140;11.636;2024-03-22T00:28:16;7.10;57.40
9425;DHT22;17139;52.140;11.636;2024-03-22T00:30:43;7.00;57.30
9425;DHT22;17139;52.140;11.636;2024-03-22T00:33:09;7.00;57.30
9425;DHT22;17139;52.140;11.636;2024-03-22T00:35:35;7.00;57.30
9425;DHT22;17139;52.140;11.636;2024-03-22T00:38:00;7.00;57.30
9425;DHT22;17139;52.140;11.636;2024-03-22T00:40:26;7.10;57.30
9425;DHT22;17139;52.140;11.636;2024-03-22T00:42:52;7.00;57.30
9425;DHT22;17139;52.140;11.636;2024-03-22T00:45:18;7.00;57.30
9425;DHT22;17139;52.140;11.636;2024-03-22T00:47:45;7.10;57.60
9425;DHT22;17139;52.140;11.636;2024-03-22T00:50:11;7.10;57.30
9425;DHT22;17139;52.140;11.636;2024-03-22T00:52:36;7.00;57.20
9425;DHT22;17139;52.140;11.636;2024-03-22T00:55:02;7.00;57.30
9425;DHT22;17139;52.140;11.636;2024-03-22T00:57:28;6.90;57.30
9425;DHT22;17139;52.140;11.636;2024-03-22T00:59:54;6.90;57.40
9425;DHT22;17139;52.140;11.636;2024-03-22T01:02:20;6.80;57.50
9425;DHT22;17139;52.140;11.636;2024-03-22T01:04:47;6.80;57.60
9425;DHT22;17139;52.140;11.636;2024-03-22T01:07:13;6.80;57.60
9425;DHT22;17139;52.140;11.636;2024-03-22T01:09:39;6.70;57.50
9425;DHT22;17139;52.140;11.636;2024-03-22T01:12:05;6.60;57.40
9425;DHT22;17139;52.140;11.636;2024-03-22T01:14:31;6.60;57.40
9425;DHT22;17139;52.140;11.636;2024-03-22T01:16:56;6.60;57.50
9425;DHT22;17139;52.140;11.636;2024-03-22T01:19:22;6.50;57.50
9425;DHT22;17139;52.140;11.636;2024-03-22T01:21:49;6.50;57.50
9425;DHT22;17139;52.140;11.636;2024-03-22T01:24:15;6.50;57.50
9425;DHT22;17139;52.140;11.636;2024-03-22T01:26:41;6.50;57.50
9425;DHT22;17139;52.140;11.636;2024-03-22T01:29:07;7.10;58.50
9425;DHT22;17139;52.140;11.636;2024-03-22T01:31:32;7.00;57.20
9425;DHT22;17139;52.140;11.636;2024-03-22T01:33:58;6.90;57.20
9425;DHT22;17139;52.140;11.636;2024-03-22T01:36:24;6.80;57.20
9425;DHT22;17139;52.140;11.636;2024-03-22T01:38:51;6.70;57.30
9425;DHT22;17139;52.140;11.636;2024-03-22T01:41:17;6.70;57.50
9425;DHT22;17139;52.140;11.636;2024-03-22T01:43:43;6.70;57.50
9425;DHT22;17139;52.140;11.636;2024-03-22T01:46:09;6.60;57.50
9425;DHT22;17139;52.140;11.636;2024-03-22T01:48:35;6.60;57.40
9425;DHT22;17139;52.140;11.636;2024-03-22T01:51:01;6.60;57.40
9425;DHT22;17139;52.140;11.636;2024-03-22T01:53:27;6.60;57.50
9425;DHT22;17139;52.140;11.636;2024-03-22T01:55:55;6.60;57.50
9425;DHT22;17139;52.140;11.636;2024-03-22T01:58:21;6.60;57.40
9425;DHT22;17139;52.140;11.636;2024-03-22T02:00:47;6.60;57.40
9425;DHT22;17139;52.140;11.636;2024-03-22T02:03:13;6.70;57.50
9425;DHT22;17139;52.140;11.636;2024-03-22T02:05:39;6.70;57.30
9425;DHT22;17139;52.140;11.636;2024-03-22T02:08:05;7.10;57.90
9425;DHT22;17139;52.140;11.636;2024-03-22T02:10:31;7.00;57.00
9425;DHT22;17139;52.140;11.636;2024-03-22T02:12:58;7.00;57.00
9425;DHT22;17139;52.140;11.636;2024-03-22T02:15:24;6.90;57.00
9425;DHT22;17139;52.140;11.636;2024-03-22T02:17:50;6.90;57.10
9425;DHT22;17139;52.140;11.636;2024-03-22T02:20:16;6.80;57.10
9425;DHT22;17139;52.140;11.636;2024-03-22T02:22:42;6.90;57.20
9425;DHT22;17139;52.140;11.636;2024-03-22T02:25:09;6.90;57.20
9425;DHT22;17139;52.140;11.636;2024-03-22T02:27:35;6.90;57.20
9425;DHT22;17139;52.140;11.636;2024-03-22T02:30:01;6.90;57.10
9425;DHT22;17139;52.140;11.636;2024-03-22T02:32:27;6.90;57.10
9425;DHT22;17139;52.140;11.636;2024-03-22T02:34:52;6.90;57.10
9425;DHT22;17139;52.140;11.636;2024-03-22T02:37:18;6.90;57.00
9425;DHT22;17139;52.140;11.636;2024-03-22T02:39:44;6.90;57.00
9425;DHT22;17139;52.140;11.636;2024-03-22T02:42:11;6.90;57.00
9425;DHT22;17139;52.140;11.636;2024-03-22T02:44:37;6.90;56.90
9425;DHT22;17139;52.140;11.636;2024-03-22T02:47:03;6.90;56.90
9425;DHT22;17139;52.140;11.636;2024-03-22T02:49:29;7.70;57.50
9425;DHT22;17139;52.140;11.636;2024-03-22T02:51:55;7.50;56.40
9425;DHT22;17139;52.140;11.636;2024-03-22T02:54:20;7.40;56.60
9425;DHT22;17139;52.140;11.636;2024-03-22T02:56:46;7.20;56.70
9425;DHT22;17139;52.140;11.636;2024-03-22T02:59:13;7.20;56.90
9425;DHT22;17139;52.140;11.636;2024-03-22T03:01:39;7.20;57.00
9425;DHT22;17139;52.140;11.636;2024-03-22T03:04:05;7.10;57.00
9425;DHT22;17139;52.140;11.636;2024-03-22T03:06:31;7.10;57.00
9425;DHT22;17139;52.140;11.636;2024-03-22T03:08:56;7.10;57.00
9425;DHT22;17139;52.140;11.636;2024-03-22T03:11:22;7.10;57.00
9425;DHT22;17139;52.140;11.636;2024-03-22T03:13:48;7.10;57.00
9425;DHT22;17139;52.140;11.636;2024-03-22T03:16:15;7.10;56.90
9425;DHT22;17139;52.140;11.636;2024-03-22T03:18:41;7.10;56.90
9425;DHT22;17139;52.140;11.636;2024-03-22T03:21:07;7.10;56.90
9425;DHT22;17139;52.140;11.636;2024-03-22T03:23:33;7.20;57.00
9425;DHT22;17139;52.140;11.636;2024-03-22T03:25:58;7.20;57.00
9425;DHT22;17139;52.140;11.636;2024-03-22T03:28:24;7.20;57.00
9425;DHT22;17139;52.140;11.636;2024-03-22T03:30:50;8.10;57.30
9425;DHT22;17139;52.140;11.636;2024-03-22T03:33:17;8.00;56.40
9425;DHT22;17139;52.140;11.636;2024-03-22T03:35:45;7.80;56.40
9425;DHT22;17139;52.140;11.636;2024-03-22T03:38:11;7.70;56.60
9425;DHT22;17139;52.140;11.636;2024-03-22T03:40:37;7.60;56.70
9425;DHT22;17139;52.140;11.636;2024-03-22T03:43:03;7.60;56.70
9425;DHT22;17139;52.140;11.636;2024-03-22T03:45:29;7.60;56.90
9425;DHT22;17139;52.140;11.636;2024-03-22T03:47:55;7.50;56.80
9425;DHT22;17139;52.140;11.636;2024-03-22T03:50:22;7.50;56.90
9425;DHT22;17139;52.140;11.636;2024-03-22T03:52:48;7.50;57.00
9425;DHT22;17139;52.140;11.636;2024-03-22T03:55:14;7.50;56.90
9425;DHT22;17139;52.140;11.636;2024-03-22T03:57:40;7.50;57.00
9425;DHT22;17139;52.140;11.636;2024-03-22T04:00:07;7.40;56.90
9425;DHT22;17139;52.140;11.636;2024-03-22T04:02:32;7.40;57.00
9425;DHT22;17139;52.140;11.636;2024-03-22T04:04:58;7.40;57.00
9425;DHT22;17139;52.140;11.636;2024-03-22T04:07:25;7.50;57.00
9425;DHT22;17139;52.140;11.636;2024-03-22T04:09:51;7.50;57.00
9425;DHT22;17139;52.140;11.636;2024-03-22T04:12:17;7.40;57.00
9425;DHT22;17139;52.140;11.636;2024-03-22T04:14:43;7.50;57.00
9425;DHT22;17139;52.140;11.636;2024-03-22T04:17:09;7.60;57.40
9425;DHT22;17139;52.140;11.636;2024-03-22T04:19:34;7.60;56.90
9425;DHT22;17139;52.140;11.636;2024-03-22T04:22:00;7.50;56.90
9425;DHT22;17139;52.140;11.636;2024-03-22T04:24:27;7.50;56.90
9425;DHT22;17139;52.140;11.636;2024-03-22T04:26:53;7.50;57.00
9425;DHT22;17139;52.140;11.636;2024-03-22T04:29:19;7.50;57.00
9425;DHT22;17139;52.140;11.636;2024-03-22T04:31:45;7.50;57.00
9425;DHT22;17139;52.140;11.636;2024-03-22T04:34:10;7.60;57.00
9425;DHT22;17139;52.140;11.636;2024-03-22T04:36:36;7.60;57.00
9425;DHT22;17139;52.140;11.636;2024-03-22T04:39:02;7.60;57.00
9425;DHT22;17139;52.140;11.636;2024-03-22T04:41:29;7.60;57.00
9425;DHT22;17139;52.140;11.636;2024-03-22T04:43:55;7.60;57.00
9425;DHT22;17139;52.140;11.636;2024-03-22T04:46:21;7.60;57.00
9425;DHT22;17139;52.140;11.636;2024-03-22T04:48:47;7.60;57.00
9425;DHT22;17139;52.140;11.636;2024-03-22T04:51:13;7.60;57.00
9425;DHT22;17139;52.140;11.636;2024-03-22T04:53:38;7.60;57.00
9425;DHT22;17139;52.140;11.636;2024-03-22T04:56:05;7.60;57.00
9425;DHT22;17139;52.140;11.636;2024-03-22T04:58:32;8.00;57.70
9425;DHT22;17139;52.140;11.636;2024-03-22T05:00:58;8.00;56.80
9425;DHT22;17139;52.140;11.636;2024-03-22T05:03:24;7.80;56.80
9425;DHT22;17139;52.140;11.636;2024-03-22T05:05:50;7.80;57.00
9425;DHT22;17139;52.140;11.636;2024-03-22T05:08:16;7.80;57.00
9425;DHT22;17139;52.140;11.636;2024-03-22T05:10:42;7.70;57.00
9425;DHT22;17139;52.140;11.636;2024-03-22T05:13:08;7.70;57.00
9425;DHT22;17139;52.140;11.636;2024-03-22T05:15:35;7.70;57.10
9425;DHT22;17139;52.140;11.636;2024-03-22T05:18:01;7.70;57.20
9425;DHT22;17139;52.140;11.636;2024-03-22T05:20:26;7.70;57.20
9425;DHT22;17139;52.140;11.636;2024-03-22T05:22:52;7.60;57.80
9425;DHT22;17139;52.140;11.636;2024-03-22T05:25:18;7.50;57.20
9425;DHT22;17139;52.140;11.636;2024-03-22T05:27:45;8.10;58.00
9425;DHT22;17139;52.140;11.636;2024-03-22T05:30:11;8.80;57.20
9425;DHT22;17139;52.140;11.636;2024-03-22T05:32:39;8.50;56.60
9425;DHT22;17139;52.140;11.636;2024-03-22T05:35:05;8.20;56.90
9425;DHT22;17139;52.140;11.636;2024-03-22T05:37:31;8.10;57.20
9425;DHT22;17139;52.140;11.636;2024-03-22T05:39:57;7.90;57.30
9425;DHT22;17139;52.140;11.636;2024-03-22T05:42:22;7.90;57.40
9425;DHT22;17139;52.140;11.636;2024-03-22T05:44:48;7.80;57.40
9425;DHT22;17139;52.140;11.636;2024-03-22T05:47:14;7.80;57.50
9425;DHT22;17139;52.140;11.636;2024-03-22T05:49:41;7.80;57.50
9425;DHT22;17139;52.140;11.636;2024-03-22T05:52:07;7.80;57.60
9425;DHT22;17139;52.140;11.636;2024-03-22T05:54:33;7.80;57.60
9425;DHT22;17139;52.140;11.636;2024-03-22T05:56:59;7.90;57.60
9425;DHT22;17139;52.140;11.636;2024-03-22T05:59:25;7.90;57.60
9425;DHT22;17139;52.140;11.636;2024-03-22T06:01:50;7.90;57.50
9425;DHT22;17139;52.140;11.636;2024-03-22T06:04:16;7.90;57.50
9425;DHT22;17139;52.140;11.636;2024-03-22T06:06:43;7.90;57.50
9425;DHT22;17139;52.140;11.636;2024-03-22T06:09:09;8.10;57.80
9425;DHT22;17139;52.140;11.636;2024-03-22T06:11:35;8.10;57.40
9425;DHT22;17139;52.140;11.636;2024-03-22T06:14:01;8.10;57.40
9425;DHT22;17139;52.140;11.636;2024-03-22T06:16:27;8.30;57.80
9425;DHT22;17139;52.140;11.636;2024-03-22T06:18:53;8.40;57.30
9425;DHT22;17139;52.140;11.636;2024-03-22T06:21:18;8.30;57.30
9425;DHT22;17139;52.140;11.636;2024-03-22T06:23:46;8.30;57.40
9425;DHT22;17139;52.140;11.636;2024-03-22T06:26:11;8.30;57.40
9425;DHT22;17139;52.140;11.636;2024-03-22T06:28:37;8.20;57.30
9425;DHT22;17139;52.140;11.636;2024-03-22T06:31:03;8.30;57.40
9425;DHT22;17139;52.140;11.636;2024-03-22T06:33:29;8.30;57.50
9425;DHT22;17139;52.140;11.636;2024-03-22T06:35:55;8.30;57.40
9425;DHT22;17139;52.140;11.636;2024-03-22T06:38:21;8.40;57.50
9425;DHT22;17139;52.140;11.636;2024-03-22T06:40:48;8.40;57.50
9425;DHT22;17139;52.140;11.636;2024-03-22T06:43:14;8.50;57.70
9425;DHT22;17139;52.140;11.636;2024-03-22T06:45:39;8.50;57.30
9425;DHT22;17139;52.140;11.636;2024-03-22T06:48:05;8.50;57.30
9425;DHT22;17139;52.140;11.636;2024-03-22T06:50:31;8.70;57.60
9425;DHT22;17139;52.140;11.636;2024-03-22T06:52:57;8.70;57.20
9425;DHT22;17139;52.140;11.636;2024-03-22T06:55:23;8.70;57.30
9425;DHT22;17139;52.140;11.636;2024-03-22T06:57:50;8.70;57.30
9425;DHT22;17139;52.140;11.636;2024-03-22T07:00:17;8.70;57.30
9425;DHT22;17139;52.140;11.636;2024-03-22T07:02:42;8.70;57.50
9425;DHT22;17139;52.140;11.636;2024-03-22T07:05:09;8.90;57.90
9425;DHT22;17139;52.140;11.636;2024-03-22T07:07:35;9.10;57.90
9425;DHT22;17139;52.140;11.636;2024-03-22T07:10:01;9.30;57.60
9425;DHT22;17139;52.140;11.636;2024-03-22T07:12:27;9.40;57.30
9425;DHT22;17139;52.140;11.636;2024-03-22T07:14:55;9.50;57.30
9425;DHT22;17139;52.140;11.636;2024-03-22T07:17:21;9.40;57.10
9425;DHT22;17139;52.140;11.636;2024-03-22T07:19:46;9.40;57.20
9425;DHT22;17139;52.140;11.636;2024-03-22T07:22:12;9.60;57.30
9425;DHT22;17139;52.140;11.636;2024-03-22T07:24:38;9.60;56.90
9425;DHT22;17139;52.140;11.636;2024-03-22T07:27:04;9.50;57.00
9425;DHT22;17139;52.140;11.636;2024-03-22T07:29:30;10.20;56.70
9425;DHT22;17139;52.140;11.636;2024-03-22T07:31:57;10.00;56.30
9425;DHT22;17139;52.140;11.636;2024-03-22T07:34:23;9.80;56.70
9425;DHT22;17139;52.140;11.636;2024-03-22T07:36:49;9.70;57.00
9425;DHT22;17139;52.140;11.636;2024-03-22T07:39:14;9.60;57.10
9425;DHT22;17139;52.140;11.636;2024-03-22T07:41:40;9.70;57.20
9425;DHT22;17139;52.140;11.636;2024-03-22T07:44:06;9.60;57.20
9425;DHT22;17139;52.140;11.636;2024-03-22T07:46:32;9.60;57.20
9425;DHT22;17139;52.140;11.636;2024-03-22T07:48:59;9.70;57.30
9425;DHT22;17139;52.140;11.636;2024-03-22T07:51:25;9.60;57.30
9425;DHT22;17139;52.140;11.636;2024-03-22T07:53:51;9.70;57.40
9425;DHT22;17139;52.140;11.636;2024-03-22T07:56:16;9.70;57.30
9425;DHT22;17139;52.140;11.636;2024-03-22T07:58:42;9.80;57.30
9425;DHT22;17139;52.140;11.636;2024-03-22T08:01:08;10.80;56.60
9425;DHT22;17139;52.140;11.636;2024-03-22T08:03:34;10.60;56.20
9425;DHT22;17139;52.140;11.636;2024-03-22T08:06:01;10.40;56.40
9425;DHT22;17139;52.140;11.636;2024-03-22T08:08:27;11.20;55.80
9425;DHT22;17139;52.140;11.636;2024-03-22T08:10:53;11.00;55.90
9425;DHT22;17139;52.140;11.636;2024-03-22T08:13:19;10.70;56.20
9425;DHT22;17139;52.140;11.636;2024-03-22T08:15:44;10.70;56.60
9425;DHT22;17139;52.140;11.636;2024-03-22T08:18:10;10.60;56.70
9425;DHT22;17139;52.140;11.636;2024-03-22T08:20:36;10.50;56.80
9425;DHT22;17139;52.140;11.636;2024-03-22T08:23:03;10.60;57.00
9425;DHT22;17139;52.140;11.636;2024-03-22T08:25:29;10.60;57.00
9425;DHT22;17139;52.140;11.636;2024-03-22T08:27:55;10.60;57.00
9425;DHT22;17139;52.140;11.636;2024-03-22T08:30:21;10.70;57.70
9425;DHT22;17139;52.140;11.636;2024-03-22T08:32:47;10.70;57.00
9425;DHT22;17139;52.140;11.636;2024-03-22T08:35:13;10.80;56.90
9425;DHT22;17139;52.140;11.636;2024-03-22T08:37:39;11.00;56.90
9425;DHT22;17139;52.140;11.636;2024-03-22T08:40:07;11.90;56.50
9425;DHT22;17139;52.140;11.636;2024-03-22T08:42:33;11.80;56.00
9425;DHT22;17139;52.140;11.636;2024-03-22T08:44:59;12.00;56.20
9425;DHT22;17139;52.140;11.636;2024-03-22T08:47:25;11.90;56.10
9425;DHT22;17139;52.140;11.636;2024-03-22T08:49:51;11.90;56.30
9425;DHT22;17139;52.140;11.636;2024-03-22T08:52:17;11.90;56.40
9425;DHT22;17139;52.140;11.636;2024-03-22T08:54:42;12.00;56.50
9425;DHT22;17139;52.140;11.636;2024-03-22T08:57:10;12.10;56.60
9425;DHT22;17139;52.140;11.636;2024-03-22T08:59:35;12.10;56.60
9425;DHT22;17139;52.140;11.636;2024-03-22T09:02:01;12.10;56.60
9425;DHT22;17139;52.140;11.636;2024-03-22T09:04:27;12.10;56.60
9425;DHT22;17139;52.140;11.636;2024-03-22T09:06:54;12.00;56.70
9425;DHT22;17139;52.140;11.636;2024-03-22T09:09:20;12.00;56.80
9425;DHT22;17139;52.140;11.636;2024-03-22T09:11:45;12.00;56.90
9425;DHT22;17139;52.140;11.636;2024-03-22T09:14:13;12.00;56.90
9425;DHT22;17139;52.140;11.636;2024-03-22T09:16:39;12.10;57.00
9425;DHT22;17139;52.140;11.636;2024-03-22T09:19:05;12.10;57.10
9425;DHT22;17139;52.140;11.636;2024-03-22T09:21:30;12.10;57.00
9425;DHT22;17139;52.140;11.636;2024-03-22T09:23:56;12.80;56.20
9425;DHT22;17139;52.140;11.636;2024-03-22T09:26:22;12.80;56.20
9425;DHT22;17139;52.140;11.636;2024-03-22T09:28:48;12.80;56.30
9425;DHT22;17139;52.140;11.636;2024-03-22T09:31:16;12.90;56.40
9425;DHT22;17139;52.140;11.636;2024-03-22T09:33:43;12.90;56.40
9425;DHT22;17139;52.140;11.636;2024-03-22T09:36:09;12.90;56.30
9425;DHT22;17139;52.140;11.636;2024-03-22T09:38:35;13.60;55.00
9425;DHT22;17139;52.140;11.636;2024-03-22T09:41:00;13.50;55.40
9425;DHT22;17139;52.140;11.636;2024-03-22T09:43:27;13.30;55.80
9425;DHT22;17139;52.140;11.636;2024-03-22T09:45:54;13.40;55.60
9425;DHT22;17139;52.140;11.636;2024-03-22T09:48:22;13.20;55.80
9425;DHT22;17139;52.140;11.636;2024-03-22T09:50:49;13.90;54.60
9425;DHT22;17139;52.140;11.636;2024-03-22T09:53:18;13.60;55.10
9425;DHT22;17139;52.140;11.636;2024-03-22T09:55:46;13.50;55.20
9425;DHT22;17139;52.140;11.636;2024-03-22T09:58:12;13.30;55.70
9425;DHT22;17139;52.140;11.636;2024-03-22T10:00:38;13.20;56.10
9425;DHT22;17139;52.140;11.636;2024-03-22T10:03:04;13.10;56.40
9425;DHT22;17139;52.140;11.636;2024-03-22T10:05:32;13.00;56.50
9425;DHT22;17139;52.140;11.636;2024-03-22T10:07:57;13.00;56.60
9425;DHT22;17139;52.140;11.636;2024-03-22T10:10:25;13.00;56.60
9425;DHT22;17139;52.140;11.636;2024-03-22T10:12:51;13.00;56.60
9425;DHT22;17139;52.140;11.636;2024-03-22T10:15:17;13.10;56.60
9425;DHT22;17139;52.140;11.636;2024-03-22T10:17:43;13.10;56.60
9425;DHT22;17139;52.140;11.636;2024-03-22T10:20:12;13.20;56.60
9425;DHT22;17139;52.140;11.636;2024-03-22T10:22:41;13.20;56.60
9425;DHT22;17139;52.140;11.636;2024-03-22T10:25:07;13.20;56.60
9425;DHT22;17139;52.140;11.636;2024-03-22T10:27:33;13.20;56.50
9425;DHT22;17139;52.140;11.636;2024-03-22T10:29:59;14.00;55.00
9425;DHT22;17139;52.140;11.636;2024-03-22T10:32:26;13.70;55.40
9425;DHT22;17139;52.140;11.636;2024-03-22T10:34:53;13.40;55.90
9425;DHT22;17139;52.140;11.636;2024-03-22T10:37:19;13.20;56.20
9425;DHT22;17139;52.140;11.636;2024-03-22T10:39:50;13.10;56.50
9425;DHT22;17139;52.140;11.636;2024-03-22T10:42:17;13.10;56.70
9425;DHT22;17139;52.140;11.636;2024-03-22T10:44:44;12.90;56.70
9425;DHT22;17139;52.140;11.636;2024-03-22T10:47:09;12.90;56.90
9425;DHT22;17139;52.140;11.636;2024-03-22T10:49:37;12.90;56.90
9425;DHT22;17139;52.140;11.636;2024-03-22T10:52:05;12.90;57.00
9425;DHT22;17139;52.140;11.636;2024-03-22T10:54:35;12.80;56.90
9425;DHT22;17139;52.140;11.636;2024-03-22T10:57:05;12.90;57.00
9425;DHT22;17139;52.140;11.636;2024-03-22T10:59:33;12.90;57.00
9425;DHT22;17139;52.140;11.636;2024-03-22T11:02:03;12.80;56.90
9425;DHT22;17139;52.140;11.636;2024-03-22T11:04:30;12.80;57.00
9425;DHT22;17139;52.140;11.636;2024-03-22T11:06:56;13.60;55.20
9425;DHT22;17139;52.140;11.636;2024-03-22T11:09:23;13.40;55.60
9425;DHT22;17139;52.140;11.636;2024-03-22T11:11:52;13.20;56.10
9425;DHT22;17139;52.140;11.636;2024-03-22T11:14:19;13.10;56.50
9425;DHT22;17139;52.140;11.636;2024-03-22T11:16:45;13.10;56.60
9425;DHT22;17139;52.140;11.636;2024-03-22T11:19:11;13.00;56.70
9425;DHT22;17139;52.140;11.636;2024-03-22T11:21:37;13.00;56.80
9425;DHT22;17139;52.140;11.636;2024-03-22T11:24:03;13.00;56.80
9425;DHT22;17139;52.140;11.636;2024-03-22T11:26:29;13.00;56.80
9425;DHT22;17139;52.140;11.636;2024-03-22T11:28:55;12.90;56.90
9425;DHT22;17139;52.140;11.636;2024-03-22T11:31:22;12.90;56.90
9425;DHT22;17139;52.140;11.636;2024-03-22T11:33:49;12.90;57.00
9425;DHT22;17139;52.140;11.636;2024-03-22T11:36:15;12.90;57.00
9425;DHT22;17139;52.140;11.636;2024-03-22T11:38:41;12.80;56.90
9425;DHT22;17139;52.140;11.636;2024-03-22T11:41:07;12.80;56.90
9425;DHT22;17139;52.140;11.636;2024-03-22T11:43:33;12.80;57.00
9425;DHT22;17139;52.140;11.636;2024-03-22T11:45:59;12.90;56.70
9425;DHT22;17139;52.140;11.636;2024-03-22T11:48:27;12.90;56.70
9425;DHT22;17139;52.140;11.636;2024-03-22T11:50:52;12.80;56.70
9425;DHT22;17139;52.140;11.636;2024-03-22T11:53:18;13.30;55.30
9425;DHT22;17139;52.140;11.636;2024-03-22T11:55:44;13.10;55.60
9425;DHT22;17139;52.140;11.636;2024-03-22T11:58:10;13.00;56.10
9425;DHT22;17139;52.140;11.636;2024-03-22T12:00:36;12.90;56.30
9425;DHT22;17139;52.140;11.636;2024-03-22T12:03:04;12.90;56.50
9425;DHT22;17139;52.140;11.636;2024-03-22T12:05:31;12.80;56.60
9425;DHT22;17139;52.140;11.636;2024-03-22T12:07:57;12.80;56.60
9425;DHT22;17139;52.140;11.636;2024-03-22T12:10:23;12.90;56.80
9425;DHT22;17139;52.140;11.636;2024-03-22T12:12:49;12.80;56.80
9425;DHT22;17139;52.140;11.636;2024-03-22T12:15:15;12.90;56.80
9425;DHT22;17139;52.140;11.636;2024-03-22T12:17:40;12.80;56.70
9425;DHT22;17139;52.140;11.636;2024-03-22T12:20:08;12.90;56.80
9425;DHT22;17139;52.140;11.636;2024-03-22T12:22:35;12.80;56.70
9425;DHT22;17139;52.140;11.636;2024-03-22T12:25:01;12.90;56.90
9425;DHT22;17139;52.140;11.636;2024-03-22T12:27:27;13.50;55.90
9425;DHT22;17139;52.140;11.636;2024-03-22T12:29:53;13.30;56.00
9425;DHT22;17139;52.140;11.636;2024-03-22T12:32:19;13.10;56.20
9425;DHT22;17139;52.140;11.636;2024-03-22T12:34:45;13.80;54.40
9425;DHT22;17139;52.140;11.636;2024-03-22T12:37:10;13.40;55.00
9425;DHT22;17139;52.140;11.636;2024-03-22T12:39:37;13.10;55.90
9425;DHT22;17139;52.140;11.636;2024-03-22T12:42:04;12.90;56.40
9425;DHT22;17139;52.140;11.636;2024-03-22T12:44:29;12.70;56.70
9425;DHT22;17139;52.140;11.636;2024-03-22T12:46:55;12.60;56.90
9425;DHT22;17139;52.140;11.636;2024-03-22T12:49:21;12.50;57.00
9425;DHT22;17139;52.140;11.636;2024-03-22T12:51:47;12.50;57.10
9425;DHT22;17139;52.140;11.636;2024-03-22T12:54:13;12.40;57.00
9425;DHT22;17139;52.140;11.636;2024-03-22T12:56:41;12.50;57.10
9425;DHT22;17139;52.140;11.636;2024-03-22T12:59:07;12.40;57.10
9425;DHT22;17139;52.140;11.636;2024-03-22T13:01:33;12.90;56.60
9425;DHT22;17139;52.140;11.636;2024-03-22T13:03:59;13.20;55.80
9425;DHT22;17139;52.140;11.636;2024-03-22T13:06:25;13.10;56.00
9425;DHT22;17139;52.140;11.636;2024-03-22T13:08:51;13.00;56.30
9425;DHT22;17139;52.140;11.636;2024-03-22T13:11:17;13.30;55.80
9425;DHT22;17139;52.140;11.636;2024-03-22T13:13:44;13.20;56.00
9425;DHT22;17139;52.140;11.636;2024-03-22T13:16:10;13.10;56.20
9425;DHT22;17139;52.140;11.636;2024-03-22T13:18:35;13.10;56.40
9425;DHT22;17139;52.140;11.636;2024-03-22T13:21:01;13.00;56.50
9425;DHT22;17139;52.140;11.636;2024-03-22T13:23:27;13.10;56.70
9425;DHT22;17139;52.140;11.636;2024-03-22T13:25:53;13.00;56.70
9425;DHT22;17139;52.140;11.636;2024-03-22T13:28:19;13.10;56.80
9425;DHT22;17139;52.140;11.636;2024-03-22T13:30:46;13.10;56.80
9425;DHT22;17139;52.140;11.636;2024-03-22T13:33:12;13.10;56.80
9425;DHT22;17139;52.140;11.636;2024-03-22T13:35:38;13.10;56.80
9425;DHT22;17139;52.140;11.636;2024-03-22T13:38:04;13.10;56.80
9425;DHT22;17139;52.140;11.636;2024-03-22T13:40:30;13.10;56.90
9425;DHT22;17139;52.140;11.636;2024-03-22T13:42:55;13.00;56.80
9425;DHT22;17139;52.140;11.636;2024-03-22T13:45:21;13.00;56.90
9425;DHT22;17139;52.140;11.636;2024-03-22T13:47:49;12.90;57.00
9425;DHT22;17139;52.140;11.636;2024-03-22T13:50:14;13.20;56.80
9425;DHT22;17139;52.140;11.636;2024-03-22T13:52:40;13.10;56.70
9425;DHT22;17139;52.140;11.636;2024-03-22T13:55:07;13.00;57.10
9425;DHT22;17139;52.140;11.636;2024-03-22T13:57:33;13.00;57.30
9425;DHT22;17139;52.140;11.636;2024-03-22T13:59:59;12.90;57.40
9425;DHT22;17139;52.140;11.636;2024-03-22T14:02:25;12.90;57.50
9425;DHT22;17139;52.140;11.636;2024-03-22T14:04:52;12.90;57.70
9425;DHT22;17139;52.140;11.636;2024-03-22T14:07:18;13.00;57.70
9425;DHT22;17139;52.140;11.636;2024-03-22T14:09:44;13.00;57.70
9425;DHT22;17139;52.140;11.636;2024-03-22T14:12:09;13.00;57.70
9425;DHT22;17139;52.140;11.636;2024-03-22T14:14:35;12.90;57.70
9425;DHT22;17139;52.140;11.636;2024-03-22T14:17:01;13.00;57.80
9425;DHT22;17139;52.140;11.636;2024-03-22T14:19:27;13.00;57.80
9425;DHT22;17139;52.140;11.636;2024-03-22T14:21:54;13.00;57.80
9425;DHT22;17139;52.140;11.636;2024-03-22T14:24:20;13.70;57.50
9425;DHT22;17139;52.140;11.636;2024-03-22T14:26:46;13.50;57.20
9425;DHT22;17139;52.140;11.636;2024-03-22T14:29:12;13.40;57.40
9425;DHT22;17139;52.140;11.636;2024-03-22T14:31:38;13.20;57.40
9425;DHT22;17139;52.140;11.636;2024-03-22T14:34:05;13.30;57.80
9425;DHT22;17139;52.140;11.636;2024-03-22T14:36:31;13.90;57.80
9425;DHT22;17139;52.140;11.636;2024-03-22T14:38:59;13.70;57.30
9425;DHT22;17139;52.140;11.636;2024-03-22T14:41:25;13.50;57.60
9425;DHT22;17139;52.140;11.636;2024-03-22T14:43:50;13.30;57.80
9425;DHT22;17139;52.140;11.636;2024-03-22T14:46:16;13.70;58.10
9425;DHT22;17139;52.140;11.636;2024-03-22T14:48:42;13.50;57.50
9425;DHT22;17139;52.140;11.636;2024-03-22T14:51:08;13.30;57.70
9425;DHT22;17139;52.140;11.636;2024-03-22T14:53:34;13.20;58.00
9425;DHT22;17139;52.140;11.636;2024-03-22T14:56:02;13.80;57.60
9425;DHT22;17139;52.140;11.636;2024-03-22T14:58:28;13.50;57.30
9425;DHT22;17139;52.140;11.636;2024-03-22T15:00:54;13.30;57.70
9425;DHT22;17139;52.140;11.636;2024-03-22T15:03:21;13.80;57.20
9425;DHT22;17139;52.140;11.636;2024-03-22T15:05:46;13.50;57.10
9425;DHT22;17139;52.140;11.636;2024-03-22T15:08:12;13.30;57.50
9425;DHT22;17139;52.140;11.636;2024-03-22T15:10:38;13.10;57.80
9425;DHT22;17139;52.140;11.636;2024-03-22T15:13:06;13.00;58.00
9425;DHT22;17139;52.140;11.636;2024-03-22T15:15:31;12.90;58.10
9425;DHT22;17139;52.140;11.636;2024-03-22T15:17:57;12.90;58.40
9425;DHT22;17139;52.140;11.636;2024-03-22T15:20:23;12.80;58.40
9425;DHT22;17139;52.140;11.636;2024-03-22T15:22:49;12.80;58.40
9425;DHT22;17139;52.140;11.636;2024-03-22T15:25:15;12.70;58.30
9425;DHT22;17139;52.140;11.636;2024-03-22T15:27:41;12.70;58.40
9425;DHT22;17139;52.140;11.636;2024-03-22T15:30:09;12.70;58.50
9425;DHT22;17139;52.140;11.636;2024-03-22T15:32:35;12.90;58.30